Time;durP1;ratioP1;P1;durP2;ratioP2;P2;SDS_P1;SDS_P2;PMS_P1;PMS_P2;Temp;Humidity;BMP_temperature;BMP_pressure;BME280_temperature;BME280_humidity;BME280_pressure;Samples;Min_cycle;Max_cycle;Signal;HPM_P1;HPM_P2
2024/01/17 00:00:26;;;;;;;15.80;6.60;;;0.30;99.90;;;;;;4920498;29;20048;-90
2024/01/17 00:02:52;;;;;;;14.00;6.73;;;-1.20;99.90;;;;;;4917180;23;20062;-90
2024/01/17 00:05:17;;;;;;;17.13;7.40;;;-1.20;99.90;;;;;;4900662;29;20094;-91
2024/01/17 00:07:43;;;;;;;17.07;7.40;;;-1.20;99.90;;;;;;4900848;29;20044;-90
2024/01/17 00:10:09;;;;;;;18.50;7.53;;;-1.20;99.90;;;;;;4923454;23;20123;-87
2024/01/17 00:12:37;;;;;;;18.93;7.77;;;-1.20;99.90;;;;;;4900426;29;20047;-90
2024/01/17 00:15:03;;;;;;;18.77;7.87;;;-1.20;99.90;;;;;;4886479;29;20100;-90
2024/01/17 00:17:29;;;;;;;15.70;7.57;;;-1.20;99.90;;;;;;4892090;29;20048;-91
2024/01/17 00:19:54;;;;;;;16.63;8.33;;;-1.30;99.90;;;;;;4900190;29;20549;-90
2024/01/17 00:22:20;;;;;;;18.00;7.60;;;-1.20;99.90;;;;;;4900777;29;20048;-90
2024/01/17 00:24:46;;;;;;;17.73;7.73;;;-1.20;99.90;;;;;;4899638;29;20083;-90
2024/01/17 00:27:13;;;;;;;17.37;7.73;;;-1.20;99.90;;;;;;4900199;29;20083;-91
2024/01/17 00:29:39;;;;;;;17.03;8.27;;;-1.20;99.90;;;;;;4900478;29;20374;-91
2024/01/17 00:32:05;;;;;;;16.77;8.40;;;-0.30;99.90;;;;;;4899244;29;20489;-90
2024/01/17 00:34:30;;;;;;;17.50;8.23;;;-1.20;99.90;;;;;;4901082;29;20110;-91
2024/01/17 00:36:56;;;;;;;16.23;7.87;;;-1.20;99.90;;;;;;4923967;23;20044;-90
2024/01/17 00:39:22;;;;;;;18.57;8.60;;;-1.20;99.90;;;;;;4899520;29;20052;-91
2024/01/17 00:41:49;;;;;;;19.47;9.20;;;0.30;99.90;;;;;;4900159;29;20099;-91
2024/01/17 00:44:18;;;;;;;16.20;8.77;;;-1.20;99.90;;;;;;4899264;29;20044;-89
2024/01/17 00:46:44;;;;;;;19.53;8.73;;;0.00;99.90;;;;;;4900354;29;20056;-90
2024/01/17 00:49:18;;;;;;;16.90;8.67;;;-1.20;99.90;;;;;;4900160;29;20047;-90
2024/01/17 00:51:44;;;;;;;16.70;8.77;;;-1.20;99.90;;;;;;4899356;29;20096;-90
2024/01/17 00:54:10;;;;;;;16.80;8.83;;;-1.20;99.90;;;;;;4899761;29;20051;-90
2024/01/17 00:56:36;;;;;;;20.10;9.00;;;-1.20;99.90;;;;;;4900190;29;20139;-91
2024/01/17 00:59:03;;;;;;;18.30;9.00;;;-1.20;99.90;;;;;;4898923;29;20127;-91
2024/01/17 01:01:28;;;;;;;20.07;8.97;;;-1.20;99.90;;;;;;4899998;29;20044;-90
2024/01/17 01:03:54;;;;;;;19.10;9.53;;;-1.20;99.90;;;;;;4899544;29;20044;-91
2024/01/17 01:06:19;;;;;;;18.30;8.63;;;-1.20;99.90;;;;;;4899184;29;20047;-91
2024/01/17 01:08:45;;;;;;;19.20;9.70;;;-1.20;99.90;;;;;;4899806;29;20044;-92
2024/01/17 01:11:22;;;;;;;21.53;9.67;;;-1.20;99.90;;;;;;4901470;29;20135;-91
2024/01/17 01:13:47;;;;;;;19.00;8.90;;;-1.30;99.90;;;;;;4899073;29;20048;-90
2024/01/17 01:16:13;;;;;;;15.87;8.93;;;-1.50;99.90;;;;;;4899436;29;20139;-91
2024/01/17 01:18:45;;;;;;;17.10;9.03;;;-1.50;99.90;;;;;;4899737;29;20044;-91
2024/01/17 01:21:10;;;;;;;22.30;10.50;;;-1.10;99.90;;;;;;4897715;29;20040;-91
2024/01/17 01:23:36;;;;;;;16.47;9.47;;;-1.70;99.90;;;;;;4899808;29;20052;-90
2024/01/17 01:26:01;;;;;;;20.13;9.43;;;-1.50;99.90;;;;;;4899456;29;20420;-91
2024/01/17 01:28:27;;;;;;;19.20;9.70;;;-1.50;99.90;;;;;;4898750;29;20051;-91
2024/01/17 01:30:53;;;;;;;21.27;9.87;;;-1.50;99.90;;;;;;4899479;29;20079;-91
2024/01/17 01:33:18;;;;;;;21.00;9.43;;;-1.60;99.90;;;;;;4899363;29;20044;-91
2024/01/17 01:35:44;;;;;;;18.63;9.33;;;-1.50;99.90;;;;;;4898659;29;20067;-91
2024/01/17 01:38:10;;;;;;;17.77;9.53;;;-1.60;99.90;;;;;;4899652;29;20051;-90
2024/01/17 01:40:37;;;;;;;20.27;9.90;;;-1.60;99.90;;;;;;4899138;29;20040;-91
2024/01/17 01:43:19;;;;;;;20.63;9.63;;;-1.60;99.90;;;;;;4899687;29;20067;-91
2024/01/17 01:46:03;;;;;;;17.67;9.73;;;-1.60;99.90;;;;;;4903723;29;20536;-90
2024/01/17 01:48:33;;;;;;;20.75;10.70;;;-1.60;99.90;;;;;;4902982;29;20056;-90
2024/01/17 01:50:59;;;;;;;19.73;11.17;;;-1.60;99.90;;;;;;4903953;29;20497;-91
2024/01/17 01:53:27;;;;;;;19.27;10.53;;;-1.60;99.90;;;;;;4903426;29;20040;-92
2024/01/17 01:55:54;;;;;;;21.90;10.93;;;-1.40;99.90;;;;;;4902001;29;20135;-90
2024/01/17 01:58:21;;;;;;;21.20;11.17;;;-1.60;99.90;;;;;;4903795;29;20040;-91
2024/01/17 02:00:49;;;;;;;22.27;12.27;;;-1.60;99.90;;;;;;4903673;29;20059;-92
2024/01/17 02:03:15;;;;;;;20.20;11.77;;;-1.70;99.90;;;;;;4902361;29;20568;-92
2024/01/17 02:05:42;;;;;;;20.33;10.90;;;-1.60;99.90;;;;;;4903501;29;20055;-91
2024/01/17 02:08:08;;;;;;;20.50;11.43;;;-1.70;99.90;;;;;;4902560;29;20048;-92
2024/01/17 02:10:35;;;;;;;20.87;11.13;;;-0.20;99.90;;;;;;4902616;29;20075;-91
2024/01/17 02:13:02;;;;;;;20.53;11.30;;;-1.60;99.90;;;;;;4902934;29;20142;-91
2024/01/17 02:15:33;;;;;;;19.80;11.03;;;-1.60;99.90;;;;;;4903795;29;20059;-92
2024/01/17 02:18:00;;;;;;;21.30;11.30;;;-1.90;99.90;;;;;;4900450;29;20385;-91
2024/01/17 02:20:26;;;;;;;20.27;10.53;;;0.00;99.90;;;;;;4902875;29;20047;-91
2024/01/17 02:22:51;;;;;;;21.03;11.30;;;-1.80;99.90;;;;;;4902315;29;20054;-91
2024/01/17 02:25:17;;;;;;;20.53;10.97;;;-1.80;99.90;;;;;;4902820;29;20057;-91
2024/01/17 02:27:43;;;;;;;21.67;11.80;;;-1.70;99.90;;;;;;4902341;29;20048;-90
2024/01/17 02:30:21;;;;;;;23.43;11.53;;;-1.80;99.90;;;;;;4902006;29;20048;-91
2024/01/17 02:32:48;;;;;;;19.07;10.53;;;-2.10;99.90;;;;;;4902737;29;20119;-91
2024/01/17 02:35:14;;;;;;;21.50;11.77;;;-2.00;99.90;;;;;;4902165;29;20119;-92
2024/01/17 02:37:40;;;;;;;21.13;11.00;;;0.00;99.90;;;;;;4901892;29;20427;-91
2024/01/17 02:40:24;;;;;;;18.73;10.87;;;-2.20;99.90;;;;;;4901945;29;20044;-92
2024/01/17 02:42:54;;;;;;;20.63;11.68;;;-2.70;99.90;;;;;;4902591;29;20048;-91
2024/01/17 02:45:26;;;;;;;21.57;11.30;;;-2.30;99.90;;;;;;4901820;29;20056;-91
2024/01/17 02:47:51;;;;;;;20.33;11.47;;;-2.10;99.90;;;;;;4902765;29;20441;-92
2024/01/17 02:50:17;;;;;;;19.17;10.97;;;;;;;;;;4902465;29;20051;-91
2024/01/17 02:52:44;;;;;;;20.87;10.80;;;-1.70;99.90;;;;;;4902321;29;20386;-91
2024/01/17 02:55:27;;;;;;;20.60;10.87;;;-0.50;99.90;;;;;;4901694;29;20040;-91
2024/01/17 02:57:53;;;;;;;21.38;10.98;;;-2.00;99.90;;;;;;4901573;29;20048;-90
2024/01/17 03:00:28;;;;;;;24.70;12.43;;;-2.00;99.90;;;;;;4902579;29;20044;-90
2024/01/17 03:03:10;;;;;;;19.57;11.03;;;-1.50;99.90;;;;;;4901875;29;20044;-91
2024/01/17 03:05:54;;;;;;;19.07;10.87;;;-2.10;99.90;;;;;;4901013;29;20056;-91
2024/01/17 03:08:19;;;;;;;17.60;9.90;;;-0.90;99.90;;;;;;4901725;29;20378;-91
2024/01/17 03:10:45;;;;;;;19.67;10.53;;;-2.00;99.90;;;;;;4902376;29;20123;-91
2024/01/17 03:13:20;;;;;;;18.27;10.43;;;-2.00;99.90;;;;;;4901066;29;20044;-91
2024/01/17 03:15:47;;;;;;;19.40;10.47;;;-1.80;99.90;;;;;;4902439;29;20052;-91
2024/01/17 03:18:21;;;;;;;19.20;10.30;;;-1.90;99.90;;;;;;4901519;29;20059;-91
2024/01/17 03:20:48;;;;;;;18.10;10.00;;;-1.00;99.90;;;;;;4901112;29;20523;-91
2024/01/17 03:23:14;;;;;;;17.57;9.63;;;-2.00;99.90;;;;;;4901600;29;20044;-90
2024/01/17 03:25:55;;;;;;;18.73;9.97;;;-2.00;99.90;;;;;;4902035;29;20122;-90
2024/01/17 03:28:20;;;;;;;18.40;9.27;;;-2.00;99.90;;;;;;4901333;29;20040;-91
2024/01/17 03:30:46;;;;;;;18.67;10.23;;;-1.40;99.90;;;;;;4901581;29;20106;-91
2024/01/17 03:33:27;;;;;;;18.83;9.63;;;-2.00;99.90;;;;;;4900751;29;20060;-92
2024/01/17 03:35:52;;;;;;;19.00;9.87;;;-1.70;99.90;;;;;;4901277;29;20056;-91
2024/01/17 03:38:27;;;;;;;20.30;10.07;;;-1.90;99.90;;;;;;4918383;23;20114;-91
2024/01/17 03:41:06;;;;;;;16.83;9.90;;;-1.90;99.90;;;;;;4919211;29;20090;-91
2024/01/17 03:43:47;;;;;;;18.70;10.07;;;-0.70;99.90;;;;;;4919938;29;20055;-91
2024/01/17 03:50:49;;;;;;;18.50;9.27;;;-1.50;99.90;;;;;;4899208;29;20063;-91
2024/01/17 03:53:15;;;;;;;18.97;10.60;;;-0.50;99.90;;;;;;4882531;29;20140;-92
2024/01/17 03:55:47;;;;;;;18.93;9.37;;;-2.20;99.90;;;;;;4882352;29;20143;-91
2024/01/17 03:58:12;;;;;;;19.03;10.40;;;-0.50;99.90;;;;;;4882056;29;20048;-92
2024/01/17 04:00:38;;;;;;;17.33;9.47;;;-2.30;99.90;;;;;;4882534;29;20045;-91
2024/01/17 04:03:13;;;;;;;18.30;9.80;;;-1.80;99.90;;;;;;4881258;29;20084;-91
2024/01/17 04:05:48;;;;;;;19.93;10.70;;;-2.20;99.90;;;;;;4882451;29;20048;-92
2024/01/17 04:08:20;;;;;;;17.07;9.83;;;-2.30;99.90;;;;;;4880257;29;20049;-91
2024/01/17 04:10:49;;;;;;;19.27;9.40;;;0.80;99.90;;;;;;4882446;29;20052;-91
2024/01/17 04:13:27;;;;;;;18.33;9.83;;;-2.30;99.90;;;;;;4882275;29;20048;-91
2024/01/17 04:15:55;;;;;;;20.10;10.10;;;-0.20;99.90;;;;;;4881448;29;20135;-91
2024/01/17 04:18:31;;;;;;;18.37;9.67;;;-0.80;99.90;;;;;;4882161;29;20437;-91
2024/01/17 04:21:03;;;;;;;19.77;10.27;;;-0.60;99.90;;;;;;4882185;29;20063;-91
2024/01/17 04:23:35;;;;;;;20.17;9.80;;;-2.00;99.90;;;;;;4881606;29;20136;-91
2024/01/17 04:26:06;;;;;;;18.13;9.93;;;-2.20;99.90;;;;;;4882240;29;20049;-91
2024/01/17 04:28:38;;;;;;;21.63;9.97;;;-1.90;99.90;;;;;;4881793;29;20036;-91
2024/01/17 04:31:06;;;;;;;20.00;10.40;;;-2.20;99.90;;;;;;4881206;29;20047;-91
2024/01/17 04:33:32;;;;;;;17.07;9.53;;;;;;;;;;4881947;29;20040;-90
2024/01/17 04:35:59;;;;;;;18.27;9.77;;;-2.00;99.90;;;;;;4881726;29;20048;-91
2024/01/17 04:38:28;;;;;;;17.10;10.00;;;-2.30;99.90;;;;;;4881252;29;20044;-91
2024/01/17 04:40:59;;;;;;;17.53;9.30;;;-2.20;99.90;;;;;;4881597;29;20045;-91
2024/01/17 04:43:31;;;;;;;16.33;9.07;;;-2.00;99.90;;;;;;4881605;29;20565;-91
2024/01/17 04:45:56;;;;;;;17.70;9.70;;;-1.20;99.90;;;;;;4881034;29;20064;-91
2024/01/17 04:48:22;;;;;;;18.83;9.70;;;-2.20;99.90;;;;;;4882226;29;20445;-91
2024/01/17 04:50:52;;;;;;;18.00;9.50;;;-0.80;99.90;;;;;;4881157;29;20127;-91
2024/01/17 04:53:20;;;;;;;19.00;9.70;;;-2.10;99.90;;;;;;4881530;29;20512;-91
2024/01/17 04:55:45;;;;;;;17.33;9.80;;;-1.00;99.90;;;;;;4881757;29;20072;-92
2024/01/17 04:58:11;;;;;;;20.50;9.63;;;-2.20;99.90;;;;;;4880496;29;20497;-92
2024/01/17 05:00:46;;;;;;;15.83;9.00;;;-1.50;99.90;;;;;;4894085;29;20139;-91
2024/01/17 05:03:15;;;;;;;18.73;9.37;;;-2.40;99.90;;;;;;4899737;29;20408;-92
2024/01/17 05:06:00;;;;;;;20.30;10.00;;;-0.30;99.90;;;;;;4899330;29;20125;-91
2024/01/17 05:08:41;;;;;;;18.13;9.67;;;-2.40;99.90;;;;;;4899816;29;20044;-91
2024/01/17 05:11:09;;;;;;;17.23;8.80;;;-2.00;99.90;;;;;;4899438;29;20052;-91
2024/01/17 05:13:36;;;;;;;15.93;8.87;;;-2.30;99.90;;;;;;4898874;29;20048;-91
2024/01/17 05:16:02;;;;;;;17.63;8.93;;;-2.40;99.90;;;;;;4899574;29;20044;-89
2024/01/17 05:18:34;;;;;;;17.93;9.00;;;-2.00;99.90;;;;;;4899671;29;20059;-91
2024/01/17 05:21:06;;;;;;;22.03;9.97;;;-2.00;99.90;;;;;;4899549;29;20500;-91
2024/01/17 05:23:35;;;;;;;17.70;9.13;;;-2.20;99.90;;;;;;4900135;29;20052;-91
2024/01/17 05:26:04;;;;;;;20.93;8.97;;;-0.80;99.90;;;;;;4899173;29;20049;-91
2024/01/17 05:28:30;;;;;;;18.30;9.00;;;-1.20;99.90;;;;;;4899732;29;20056;-91
2024/01/17 05:30:56;;;;;;;19.80;8.73;;;-2.30;99.90;;;;;;4899528;29;20057;-91
2024/01/17 05:33:21;;;;;;;19.30;9.30;;;-2.20;99.90;;;;;;4899314;29;20048;-92
2024/01/17 05:35:50;;;;;;;16.83;8.90;;;-1.00;99.90;;;;;;4900242;29;20044;-91
2024/01/17 05:38:28;;;;;;;18.73;8.70;;;-0.60;99.90;;;;;;4899499;29;20350;-91
2024/01/17 05:41:03;;;;;;;17.00;9.13;;;-1.50;99.90;;;;;;4898916;29;20485;-91
2024/01/17 05:43:35;;;;;;;17.43;8.83;;;-2.20;99.90;;;;;;4900105;29;20389;-91
2024/01/17 05:50:45;;;;;;;17.67;8.60;;;-1.80;99.90;;;;;;4898712;29;20056;-91
2024/01/17 05:53:29;;;;;;;18.27;9.03;;;-0.80;99.90;;;;;;4899358;29;20067;-90
2024/01/17 05:56:01;;;;;;;18.58;8.95;;;-2.80;99.90;;;;;;4898905;29;20051;-91
2024/01/17 05:58:39;;;;;;;18.13;9.03;;;-2.70;99.90;;;;;;4896994;29;20413;-91
2024/01/17 06:01:10;;;;;;;16.60;8.40;;;-1.70;99.90;;;;;;4894171;29;20055;-91
2024/01/17 06:03:38;;;;;;;20.43;9.10;;;-2.80;99.90;;;;;;4899999;29;20119;-91
2024/01/17 06:06:04;;;;;;;18.53;9.07;;;-0.50;99.90;;;;;;4899662;29;20047;-90
2024/01/17 06:08:38;;;;;;;18.83;8.93;;;-2.50;99.90;;;;;;4898570;29;20044;-90
2024/01/17 06:11:04;;;;;;;16.37;8.93;;;-2.20;99.90;;;;;;4899572;29;20065;-90
2024/01/17 06:13:30;;;;;;;17.13;9.00;;;-1.40;99.90;;;;;;4914833;29;20052;-91
2024/01/17 06:15:56;;;;;;;19.70;9.40;;;-2.70;99.90;;;;;;4898239;29;20051;-91
2024/01/17 06:18:22;;;;;;;17.50;9.30;;;-2.60;99.90;;;;;;4899413;29;20552;-90
2024/01/17 06:20:53;;;;;;;17.33;8.27;;;-1.90;99.90;;;;;;4899855;29;20047;-90
2024/01/17 06:23:29;;;;;;;19.57;8.97;;;-3.00;99.90;;;;;;4898646;29;20519;-90
2024/01/17 06:25:57;;;;;;;19.73;8.50;;;-3.00;99.90;;;;;;4899385;29;20048;-90
2024/01/17 06:28:22;;;;;;;21.40;8.87;;;-2.90;99.90;;;;;;4899482;29;20122;-91
2024/01/17 06:30:48;;;;;;;19.73;9.40;;;-2.70;99.90;;;;;;4899137;29;20469;-91
2024/01/17 06:33:32;;;;;;;18.50;8.30;;;-2.20;99.90;;;;;;4902648;29;20037;-91
2024/01/17 06:36:05;;;;;;;19.17;9.13;;;-3.10;99.90;;;;;;4901609;29;20493;-90
2024/01/17 06:38:31;;;;;;;19.90;9.20;;;-2.60;99.90;;;;;;4902779;29;20052;-90
2024/01/17 06:41:02;;;;;;;19.30;9.07;;;-2.90;99.90;;;;;;4902600;29;20044;-91
2024/01/17 06:43:28;;;;;;;17.57;8.80;;;-2.70;99.90;;;;;;4902528;29;20500;-90
2024/01/17 06:45:53;;;;;;;17.00;8.90;;;-2.00;99.90;;;;;;4902520;29;20056;-90
2024/01/17 06:49:10;;;;;;;22.83;9.30;;;-3.00;99.90;;;;;;4902734;29;20504;-90
2024/01/17 06:52:21;;;;;;;18.53;8.57;;;-3.60;99.90;;;;;;4901154;29;20143;-91
2024/01/17 06:54:49;;;;;;;16.53;8.70;;;-2.20;99.90;;;;;;4902482;29;20076;-90
2024/01/17 06:57:21;;;;;;;18.00;9.23;;;-3.00;99.90;;;;;;4900873;29;20044;-93
2024/01/17 07:00:06;;;;;;;19.73;9.23;;;-3.00;99.90;;;;;;4902173;29;20210;-92
2024/01/17 07:02:32;;;;;;;17.57;8.53;;;-2.70;99.90;;;;;;4901869;29;20044;-91
2024/01/17 07:05:01;;;;;;;16.73;8.30;;;-2.90;99.90;;;;;;4902515;29;20043;-93
2024/01/17 07:07:38;;;;;;;17.80;8.20;;;-2.80;99.90;;;;;;4902628;29;20392;-91
2024/01/17 07:10:13;;;;;;;17.10;8.30;;;-3.00;99.90;;;;;;4902436;29;20071;-92
2024/01/17 07:13:03;;;;;;;16.63;7.87;;;-2.80;99.90;;;;;;4919340;29;20051;-91
2024/01/17 07:15:29;;;;;;;16.50;8.43;;;-3.40;99.90;;;;;;4902456;29;20126;-91
2024/01/17 07:18:10;;;;;;;16.67;8.47;;;-2.80;99.90;;;;;;4902035;29;20044;-90
2024/01/17 07:20:36;;;;;;;17.03;7.93;;;-1.20;99.90;;;;;;4901846;29;20059;-89
2024/01/17 07:23:02;;;;;;;18.37;7.63;;;-3.10;99.90;;;;;;4901749;29;20040;-89
2024/01/17 07:25:28;;;;;;;18.47;8.40;;;-2.90;99.90;;;;;;4900657;29;20876;-87
2024/01/17 07:27:56;;;;;;;16.80;8.17;;;-3.10;99.90;;;;;;4901197;29;20056;-87
2024/01/17 07:30:31;;;;;;;14.60;7.73;;;-2.10;99.90;;;;;;4900800;29;20040;-87
2024/01/17 07:32:57;;;;;;;17.17;7.63;;;-3.10;99.90;;;;;;4898234;29;20056;-87
2024/01/17 07:35:25;;;;;;;16.23;8.13;;;-2.90;99.90;;;;;;4900766;29;20123;-87
2024/01/17 07:37:51;;;;;;;15.07;8.00;;;-2.90;99.90;;;;;;4899652;29;20044;-87
2024/01/17 07:40:17;;;;;;;18.37;8.40;;;-2.90;99.90;;;;;;4899988;29;20412;-86
2024/01/17 07:42:45;;;;;;;18.10;8.03;;;-2.90;99.90;;;;;;4900459;29;20132;-87
2024/01/17 07:45:11;;;;;;;15.03;7.70;;;-2.90;99.90;;;;;;4900888;29;20382;-86
2024/01/17 07:47:37;;;;;;;14.60;7.37;;;-2.90;99.90;;;;;;4900027;29;20063;-86
2024/01/17 07:50:03;;;;;;;15.67;7.33;;;-2.90;99.90;;;;;;4900409;29;20048;-89
2024/01/17 07:52:29;;;;;;;17.53;7.70;;;-2.90;99.90;;;;;;4900768;29;20051;-86
2024/01/17 07:54:57;;;;;;;16.97;8.07;;;-3.00;99.90;;;;;;4901077;29;20056;-86
2024/01/17 07:57:23;;;;;;;20.20;8.40;;;-2.90;99.90;;;;;;4901046;29;20055;-88
2024/01/17 08:00:07;;;;;;;16.57;7.70;;;-2.90;99.90;;;;;;4899998;29;20055;-87
2024/01/17 08:02:32;;;;;;;16.77;8.10;;;-2.90;99.90;;;;;;4900164;29;20402;-87
2024/01/17 08:04:58;;;;;;;17.63;8.23;;;-2.90;99.90;;;;;;4900422;29;20044;-86
2024/01/17 08:07:25;;;;;;;15.70;8.17;;;-2.90;99.90;;;;;;4900136;29;20043;-86
2024/01/17 08:09:54;;;;;;;17.70;7.97;;;-2.90;99.90;;;;;;4900608;29;20060;-87
2024/01/17 08:12:20;;;;;;;17.77;8.23;;;-2.90;99.90;;;;;;4900246;29;20047;-87
2024/01/17 08:14:46;;;;;;;17.30;8.17;;;-2.80;99.90;;;;;;4899470;29;20131;-86
2024/01/17 08:17:12;;;;;;;15.10;7.77;;;-2.80;99.90;;;;;;4900082;29;20504;-84
2024/01/17 08:19:38;;;;;;;17.70;8.07;;;-2.80;99.90;;;;;;4900308;29;20135;-85
2024/01/17 08:22:04;;;;;;;16.47;8.17;;;-2.80;99.90;;;;;;4895124;29;20052;-84
2024/01/17 08:24:30;;;;;;;19.07;9.10;;;-2.80;99.90;;;;;;4899910;29;20139;-84
2024/01/17 08:26:56;;;;;;;17.20;8.40;;;-2.80;99.90;;;;;;4899591;29;20052;-85
2024/01/17 08:29:22;;;;;;;16.23;7.90;;;-2.70;99.90;;;;;;4898942;29;20047;-84
2024/01/17 08:31:49;;;;;;;15.10;7.67;;;-2.70;99.90;;;;;;4900311;29;20066;-82
2024/01/17 08:34:14;;;;;;;17.57;8.30;;;-2.70;99.90;;;;;;4906278;29;20035;-90
2024/01/17 08:36:40;;;;;;;16.77;7.80;;;-2.70;99.90;;;;;;4918177;29;20066;-85
2024/01/17 08:39:06;;;;;;;17.77;8.63;;;-2.60;99.90;;;;;;4918381;29;20114;-86
2024/01/17 08:41:33;;;;;;;15.67;7.93;;;-2.60;99.90;;;;;;4898068;29;20059;-82
2024/01/17 08:44:01;;;;;;;20.43;9.03;;;-2.60;99.90;;;;;;4897584;29;20481;-83
2024/01/17 08:46:29;;;;;;;16.10;7.93;;;-2.50;99.90;;;;;;4899321;29;20075;-83
2024/01/17 08:48:54;;;;;;;18.80;8.37;;;-2.50;99.90;;;;;;4896769;29;20175;-82
2024/01/17 08:51:21;;;;;;;16.33;8.63;;;-2.50;99.90;;;;;;4898690;29;20134;-83
2024/01/17 08:53:48;;;;;;;19.87;8.13;;;-2.40;99.90;;;;;;4899140;29;20067;-83
2024/01/17 08:56:14;;;;;;;16.00;8.13;;;-2.40;99.90;;;;;;4898840;29;20489;-83
2024/01/17 08:58:42;;;;;;;17.83;8.20;;;-2.40;99.90;;;;;;4898165;29;20052;-83
2024/01/17 09:01:08;;;;;;;16.53;7.80;;;-2.30;99.90;;;;;;4899073;29;20040;-84
2024/01/17 09:03:34;;;;;;;15.67;8.20;;;-2.20;99.90;;;;;;4899765;29;20074;-83
2024/01/17 09:06:00;;;;;;;15.73;7.63;;;-2.20;99.90;;;;;;4899142;29;20060;-83
2024/01/17 09:08:26;;;;;;;18.07;7.60;;;-2.20;99.90;;;;;;4899171;29;20071;-83
2024/01/17 09:10:52;;;;;;;16.97;7.40;;;-2.10;99.90;;;;;;4897476;29;20075;-83
2024/01/17 09:13:17;;;;;;;17.93;8.10;;;-2.10;99.90;;;;;;4898849;29;20044;-83
2024/01/17 09:15:43;;;;;;;16.50;7.33;;;-2.00;99.90;;;;;;4899034;29;20051;-83
2024/01/17 09:18:08;;;;;;;19.53;7.93;;;-2.10;99.90;;;;;;4897892;29;20044;-83
2024/01/17 09:20:34;;;;;;;19.33;8.10;;;-2.00;99.90;;;;;;4898883;29;20508;-83
2024/01/17 09:23:00;;;;;;;15.50;7.73;;;-2.00;99.90;;;;;;4898807;29;20418;-83
2024/01/17 09:25:25;;;;;;;18.23;8.17;;;-1.90;99.90;;;;;;4898990;29;20055;-83
2024/01/17 09:27:51;;;;;;;15.90;7.83;;;-1.90;99.90;;;;;;4899324;29;20048;-83
2024/01/17 09:30:16;;;;;;;14.77;7.20;;;-1.90;99.90;;;;;;4899208;29;20060;-83
2024/01/17 09:32:44;;;;;;;16.00;7.43;;;-1.80;99.90;;;;;;4898510;29;20040;-83
2024/01/17 09:35:10;;;;;;;15.27;7.37;;;-1.80;99.90;;;;;;4899008;29;20055;-84
2024/01/17 09:37:36;;;;;;;15.00;7.90;;;-1.70;99.90;;;;;;4899333;29;20048;-84
2024/01/17 09:40:05;;;;;;;17.83;7.53;;;-1.70;99.90;;;;;;4898460;29;20052;-83
2024/01/17 09:42:34;;;;;;;14.50;7.27;;;-1.60;99.90;;;;;;4899320;29;20059;-83
2024/01/17 09:45:01;;;;;;;16.00;7.77;;;-1.60;99.90;;;;;;4898977;29;20449;-83
2024/01/17 09:47:29;;;;;;;16.63;7.40;;;-1.50;99.90;;;;;;4898337;29;20147;-83
2024/01/17 09:49:55;;;;;;;14.90;7.37;;;-1.50;99.90;;;;;;4898801;29;20060;-83
2024/01/17 09:52:22;;;;;;;14.87;7.47;;;-1.50;99.90;;;;;;4899056;29;20066;-84
2024/01/17 09:54:52;;;;;;;18.23;7.27;;;-1.50;99.90;;;;;;4898521;29;20048;-83
2024/01/17 09:57:23;;;;;;;16.87;7.67;;;-1.40;99.90;;;;;;4899492;29;20371;-84
2024/01/17 09:59:58;;;;;;;14.87;7.17;;;-1.30;99.90;;;;;;4899302;29;20044;-84
2024/01/17 10:02:25;;;;;;;15.80;7.73;;;-1.30;99.90;;;;;;4899202;29;20051;-84
2024/01/17 10:04:51;;;;;;;14.73;7.30;;;-1.30;99.90;;;;;;4900056;29;20493;-83
2024/01/17 10:07:17;;;;;;;18.93;7.50;;;-1.30;99.90;;;;;;4902297;29;20052;-83
2024/01/17 10:09:47;;;;;;;14.00;7.27;;;-1.40;99.90;;;;;;4902708;29;20051;-84
2024/01/17 10:12:13;;;;;;;15.13;7.40;;;-1.30;99.90;;;;;;4902459;29;20519;-83
2024/01/17 10:14:40;;;;;;;15.07;6.93;;;-1.40;99.90;;;;;;4902256;29;20471;-83
2024/01/17 10:17:06;;;;;;;15.37;7.63;;;-1.30;99.90;;;;;;4901536;29;20058;-84
2024/01/17 10:19:33;;;;;;;16.87;7.97;;;-1.30;99.90;;;;;;4902329;29;20052;-84
2024/01/17 10:22:02;;;;;;;16.47;7.57;;;-1.30;99.90;;;;;;4901723;29;20079;-84
2024/01/17 10:24:32;;;;;;;16.93;7.20;;;-1.30;99.90;;;;;;4902527;29;20401;-84
2024/01/17 10:27:01;;;;;;;14.03;6.90;;;-1.30;99.90;;;;;;4902552;29;20044;-83
2024/01/17 10:29:28;;;;;;;16.00;7.57;;;-1.30;99.90;;;;;;4901413;29;20510;-83
2024/01/17 10:31:58;;;;;;;15.33;7.70;;;-1.30;99.90;;;;;;4902030;29;20136;-84
2024/01/17 10:34:27;;;;;;;15.57;7.60;;;-1.20;99.90;;;;;;4902583;29;20409;-84
2024/01/17 10:36:53;;;;;;;14.77;7.07;;;-1.10;99.90;;;;;;4901068;29;20047;-83
2024/01/17 10:39:20;;;;;;;16.73;7.70;;;-1.00;99.90;;;;;;4902437;29;20048;-83
2024/01/17 10:41:49;;;;;;;16.37;7.70;;;-1.00;99.90;;;;;;4902407;29;20064;-84
2024/01/17 10:44:18;;;;;;;24.80;12.93;;;-1.00;99.90;;;;;;4902238;29;20055;-87
2024/01/17 10:46:48;;;;;;;16.97;8.10;;;-1.10;99.90;;;;;;4902162;29;20063;-84
2024/01/17 10:49:32;;;;;;;16.87;8.43;;;-1.10;99.90;;;;;;4904607;29;20436;-84
2024/01/17 10:51:58;;;;;;;;;;;-1.10;99.90;;;;;;4902111;29;20052;-85
2024/01/17 10:54:29;;;;;;;16.80;7.93;;;-1.10;99.90;;;;;;4901867;29;20356;-85
2024/01/17 10:56:55;;;;;;;16.60;8.23;;;-1.00;99.90;;;;;;4900795;29;20056;-85
2024/01/17 10:59:21;;;;;;;15.73;7.97;;;-0.90;99.90;;;;;;4901592;29;20075;-85
2024/01/17 11:01:53;;;;;;;20.03;9.10;;;-0.90;99.90;;;;;;4903370;29;20044;-85
2024/01/17 11:04:37;;;;;;;15.53;8.03;;;-0.80;99.90;;;;;;4900903;29;20139;-86
2024/01/17 11:07:03;;;;;;;18.30;9.32;;;-0.80;99.90;;;;;;4900572;29;20116;-87
2024/01/17 11:09:30;;;;;;;18.37;8.23;;;-0.80;99.90;;;;;;4901243;29;20051;-86
2024/01/17 11:11:59;;;;;;;16.50;7.70;;;-0.80;99.90;;;;;;4900512;29;20437;-86
2024/01/17 11:14:30;;;;;;;15.73;7.70;;;-0.70;99.90;;;;;;4901182;29;20095;-85
2024/01/17 11:16:57;;;;;;;17.07;8.40;;;-0.80;99.90;;;;;;4900577;29;20488;-85
2024/01/17 11:19:24;;;;;;;18.40;8.10;;;-0.80;99.90;;;;;;4900827;29;20075;-85
2024/01/17 11:21:50;;;;;;;18.20;8.30;;;-0.80;99.90;;;;;;4901458;29;20420;-84
2024/01/17 11:24:30;;;;;;;20.20;9.27;;;-0.80;99.90;;;;;;4900900;29;20598;-84
2024/01/17 11:27:02;;;;;;;17.10;8.57;;;-0.70;99.90;;;;;;4901150;29;20052;-84
2024/01/17 11:29:34;;;;;;;16.50;7.83;;;-0.60;99.90;;;;;;4900896;29;20052;-84
2024/01/17 11:32:28;;;;;;;16.37;7.97;;;-0.50;99.90;;;;;;4900167;29;20064;-85
2024/01/17 11:34:53;;;;;;;17.03;8.03;;;-0.60;99.90;;;;;;4901207;29;20401;-84
2024/01/17 11:37:38;;;;;;;16.33;7.77;;;-0.50;99.90;;;;;;4901313;29;20044;-84
2024/01/17 11:40:05;;;;;;;18.23;8.03;;;-0.50;99.90;;;;;;4900167;29;20076;-84
2024/01/17 11:42:31;;;;;;;18.73;8.00;;;-0.50;99.90;;;;;;4900897;29;20102;-84
2024/01/17 11:44:58;;;;;;;18.33;8.40;;;-0.50;99.90;;;;;;4900421;29;20095;-84
2024/01/17 11:47:23;;;;;;;20.30;8.17;;;-0.40;99.90;;;;;;4900214;29;20139;-84
2024/01/17 11:49:54;;;;;;;16.43;7.40;;;-0.40;99.90;;;;;;4900676;29;20180;-84
2024/01/17 11:52:35;;;;;;;16.83;7.90;;;-0.40;99.90;;;;;;4900664;29;20055;-86
2024/01/17 11:55:02;;;;;;;15.73;7.23;;;-0.40;99.90;;;;;;4900537;29;20040;-85
2024/01/17 11:57:32;;;;;;;15.03;7.83;;;-0.50;99.90;;;;;;4900668;29;20055;-84
2024/01/17 12:00:12;;;;;;;15.60;7.70;;;-0.50;99.90;;;;;;4899503;29;20048;-84
2024/01/17 12:02:39;;;;;;;18.63;9.33;;;-0.50;99.90;;;;;;4900695;29;20130;-85
2024/01/17 12:05:09;;;;;;;17.03;8.37;;;-0.50;99.90;;;;;;4900212;29;20083;-85
2024/01/17 12:07:42;;;;;;;15.17;7.73;;;-0.50;99.90;;;;;;4899873;29;20514;-85
2024/01/17 12:10:10;;;;;;;17.02;8.20;;;-0.50;99.90;;;;;;4900357;29;20206;-85
2024/01/17 12:12:43;;;;;;;15.53;7.73;;;-0.40;99.90;;;;;;4900568;29;20531;-85
2024/01/17 12:15:09;;;;;;;16.60;9.63;;;-0.50;99.90;;;;;;4899797;29;20142;-85
2024/01/17 12:17:39;;;;;;;14.80;7.53;;;-0.40;99.90;;;;;;4900557;29;20047;-85
2024/01/17 12:20:06;;;;;;;16.80;9.00;;;-0.50;99.90;;;;;;4900044;29;20052;-85
2024/01/17 12:22:33;;;;;;;18.33;7.90;;;-0.40;99.90;;;;;;4899694;29;20060;-84
2024/01/17 12:24:59;;;;;;;17.73;9.10;;;-0.40;99.90;;;;;;4900066;29;20524;-88
2024/01/17 12:27:26;;;;;;;17.93;8.87;;;-0.40;99.90;;;;;;4900433;29;20051;-86
2024/01/17 12:29:54;;;;;;;16.20;7.20;;;-0.40;99.90;;;;;;4898211;29;20386;-87
2024/01/17 12:32:23;;;;;;;18.03;7.87;;;-0.30;99.90;;;;;;4899848;29;20048;-85
2024/01/17 12:34:49;;;;;;;18.63;8.17;;;-0.40;99.90;;;;;;4899083;29;20519;-85
2024/01/17 12:37:16;;;;;;;14.83;8.03;;;-0.30;99.90;;;;;;4899899;29;20080;-85
2024/01/17 12:39:41;;;;;;;15.37;7.63;;;0.80;99.90;;;;;;4900180;29;20531;-85
2024/01/17 12:42:07;;;;;;;16.13;8.67;;;-0.30;99.90;;;;;;4899005;29;20052;-84
2024/01/17 12:44:33;;;;;;;16.17;7.57;;;-0.40;99.90;;;;;;4899990;29;20051;-85
2024/01/17 12:47:01;;;;;;;14.53;7.53;;;-0.40;99.90;;;;;;4916833;29;20221;-85
2024/01/17 12:49:30;;;;;;;17.47;9.20;;;-0.40;99.90;;;;;;4899434;29;20051;-84
2024/01/17 12:51:56;;;;;;;15.43;7.57;;;-0.40;99.90;;;;;;4899818;29;20055;-85
2024/01/17 12:54:23;;;;;;;16.70;7.80;;;-0.30;99.90;;;;;;4900274;29;20044;-85